Terminal Aerodrome Forecast
Issued by NWS

Home | Current Version | Previous Version | Text Only | Print | Product List | Glossary On
Versions: 1 2 3 4 5 6 7 8 9 10 11 12 13 14 15 16 17 18 19 20
367
FTUS41 KBGM 231002 AAC
TAFELM
TAF AMD
KELM 231002Z 2310/2406 00000KT 4SM BR FEW002
      TEMPO 2310/2312 1SM BR OVC002
     FM231300 21004KT P6SM SKC=

USA.gov is the U.S. government's official web portal to all federal, state and local government web resources and services.